sensor_id;sensor_type;location;lat;lon;timestamp;pressure;altitude;pressure_sealevel;temperature;humidity
65666;BME280;52365;47.464;18.976;2023-11-18T00:00:10;99659.47;;;5.17;64.73
65666;BME280;52365;47.464;18.976;2023-11-18T00:00:33;99666.94;;;5.10;64.97
65666;BME280;52365;47.464;18.976;2023-11-18T00:00:54;99651.97;;;5.12;64.90
65666;BME280;52365;47.464;18.976;2023-11-18T00:01:15;99657.81;;;4.91;65.21
65666;BME280;52365;47.464;18.976;2023-11-18T00:01:36;99665.50;;;4.89;65.75
65666;BME280;52365;47.464;18.976;2023-11-18T00:01:57;99651.97;;;4.96;65.58
65666;BME280;52365;47.464;18.976;2023-11-18T00:02:18;99652.75;;;4.96;65.47
65666;BME280;52365;47.464;18.976;2023-11-18T00:02:39;99652.97;;;4.86;65.60
65666;BME280;52365;47.464;18.976;2023-11-18T00:03:03;99668.84;;;4.93;65.75
65666;BME280;52365;47.464;18.976;2023-11-18T00:03:26;99661.16;;;4.95;65.65
65666;BME280;52365;47.464;18.976;2023-11-18T00:03:47;99667.75;;;5.07;65.42
65666;BME280;52365;47.464;18.976;2023-11-18T00:04:08;99667.59;;;5.14;65.35
65666;BME280;52365;47.464;18.976;2023-11-18T00:04:36;99664.16;;;5.13;65.27
65666;BME280;52365;47.464;18.976;2023-11-18T00:04:57;99663.25;;;5.03;65.35
65666;BME280;52365;47.464;18.976;2023-11-18T00:05:18;99652.91;;;5.05;65.34
65666;BME280;52365;47.464;18.976;2023-11-18T00:05:39;99664.75;;;5.04;65.12
65666;BME280;52365;47.464;18.976;2023-11-18T00:06:00;99669.94;;;5.12;65.16
65666;BME280;52365;47.464;18.976;2023-11-18T00:06:21;99659.63;;;5.26;64.91
65666;BME280;52365;47.464;18.976;2023-11-18T00:06:43;99667.34;;;5.24;64.77
65666;BME280;52365;47.464;18.976;2023-11-18T00:07:07;99660.13;;;5.38;64.47
65666;BME280;52365;47.464;18.976;2023-11-18T00:07:27;99665.91;;;5.36;64.43
65666;BME280;52365;47.464;18.976;2023-11-18T00:07:50;99686.53;;;5.19;64.67
65666;BME280;52365;47.464;18.976;2023-11-18T00:08:11;99661.31;;;5.04;65.09
65666;BME280;52365;47.464;18.976;2023-11-18T00:08:32;99664.66;;;5.24;64.94
65666;BME280;52365;47.464;18.976;2023-11-18T00:08:53;99661.75;;;5.19;64.70
65666;BME280;52365;47.464;18.976;2023-11-18T00:09:14;99660.41;;;5.11;64.77
65666;BME280;52365;47.464;18.976;2023-11-18T00:09:35;99671.50;;;5.09;64.98
65666;BME280;52365;47.464;18.976;2023-11-18T00:09:57;99671.44;;;4.96;65.17
65666;BME280;52365;47.464;18.976;2023-11-18T00:10:18;99670.91;;;4.85;65.42
65666;BME280;52365;47.464;18.976;2023-11-18T00:10:39;99663.72;;;4.82;65.66
65666;BME280;52365;47.464;18.976;2023-11-18T00:11:00;99661.62;;;4.73;66.06
65666;BME280;52365;47.464;18.976;2023-11-18T00:11:21;99666.97;;;4.73;66.13
65666;BME280;52365;47.464;18.976;2023-11-18T00:11:42;99675.50;;;4.85;66.09
65666;BME280;52365;47.464;18.976;2023-11-18T00:12:04;99680.13;;;5.00;65.86
65666;BME280;52365;47.464;18.976;2023-11-18T00:12:25;99670.84;;;5.05;65.66
65666;BME280;52365;47.464;18.976;2023-11-18T00:12:46;99668.34;;;5.14;65.33
65666;BME280;52365;47.464;18.976;2023-11-18T00:13:07;99678.28;;;5.14;65.18
65666;BME280;52365;47.464;18.976;2023-11-18T00:13:29;99664.94;;;4.97;65.28
65666;BME280;52365;47.464;18.976;2023-11-18T00:13:50;99664.94;;;4.97;65.28
65666;BME280;52365;47.464;18.976;2023-11-18T00:14:11;99663.81;;;4.95;65.33
65666;BME280;52365;47.464;18.976;2023-11-18T00:14:33;99670.84;;;5.05;65.18
65666;BME280;52365;47.464;18.976;2023-11-18T00:14:54;99666.00;;;5.16;65.03
65666;BME280;52365;47.464;18.976;2023-11-18T00:15:15;99681.19;;;5.19;64.87
65666;BME280;52365;47.464;18.976;2023-11-18T00:15:36;99671.69;;;5.18;64.83
65666;BME280;52365;47.464;18.976;2023-11-18T00:15:57;99672.25;;;5.26;64.75
65666;BME280;52365;47.464;18.976;2023-11-18T00:16:18;99672.16;;;5.29;64.52
65666;BME280;52365;47.464;18.976;2023-11-18T00:16:39;99659.25;;;5.12;65.07
65666;BME280;52365;47.464;18.976;2023-11-18T00:17:00;99682.28;;;5.05;65.32
65666;BME280;52365;47.464;18.976;2023-11-18T00:17:23;99676.59;;;5.03;65.37
65666;BME280;52365;47.464;18.976;2023-11-18T00:17:44;99684.53;;;5.07;65.30
65666;BME280;52365;47.464;18.976;2023-11-18T00:18:00;99682.09;;;5.13;65.18
65666;BME280;52365;47.464;18.976;2023-11-18T00:18:21;99678.59;;;5.16;65.06
65666;BME280;52365;47.464;18.976;2023-11-18T00:18:42;99688.31;;;5.10;65.18
65666;BME280;52365;47.464;18.976;2023-11-18T00:19:03;99675.78;;;5.23;64.97
65666;BME280;52365;47.464;18.976;2023-11-18T00:19:30;99690.22;;;5.25;64.76
65666;BME280;52365;47.464;18.976;2023-11-18T00:19:51;99688.72;;;5.24;64.75
65666;BME280;52365;47.464;18.976;2023-11-18T00:20:12;99688.56;;;5.32;64.57
65666;BME280;52365;47.464;18.976;2023-11-18T00:20:34;99691.81;;;5.23;64.51
65666;BME280;52365;47.464;18.976;2023-11-18T00:20:56;99691.38;;;5.24;64.72
65666;BME280;52365;47.464;18.976;2023-11-18T00:21:18;99687.03;;;5.30;64.62
65666;BME280;52365;47.464;18.976;2023-11-18T00:21:39;99693.97;;;5.28;64.53
65666;BME280;52365;47.464;18.976;2023-11-18T00:22:00;99691.38;;;5.08;64.90
65666;BME280;52365;47.464;18.976;2023-11-18T00:22:21;99688.31;;;5.10;64.93
65666;BME280;52365;47.464;18.976;2023-11-18T00:22:42;99685.34;;;5.04;65.02
65666;BME280;52365;47.464;18.976;2023-11-18T00:23:04;99686.53;;;5.03;65.12
65666;BME280;52365;47.464;18.976;2023-11-18T00:23:25;99698.38;;;5.02;65.12
65666;BME280;52365;47.464;18.976;2023-11-18T00:23:47;99703.56;;;5.09;65.27
65666;BME280;52365;47.464;18.976;2023-11-18T00:24:09;99700.41;;;5.14;65.11
65666;BME280;52365;47.464;18.976;2023-11-18T00:24:30;99693.31;;;5.24;64.95
65666;BME280;52365;47.464;18.976;2023-11-18T00:24:51;99695.47;;;5.29;64.71
65666;BME280;52365;47.464;18.976;2023-11-18T00:25:13;99681.87;;;5.23;64.64
65666;BME280;52365;47.464;18.976;2023-11-18T00:25:35;99688.63;;;5.12;64.91
65666;BME280;52365;47.464;18.976;2023-11-18T00:25:57;99698.06;;;5.16;64.91
65666;BME280;52365;47.464;18.976;2023-11-18T00:26:18;99680.87;;;5.01;65.23
65666;BME280;52365;47.464;18.976;2023-11-18T00:26:39;99683.94;;;4.99;65.38
65666;BME280;52365;47.464;18.976;2023-11-18T00:27:04;99681.03;;;4.94;65.53
65666;BME280;52365;47.464;18.976;2023-11-18T00:27:26;99693.38;;;5.20;65.33
65666;BME280;52365;47.464;18.976;2023-11-18T00:27:47;99692.88;;;5.42;64.87
65666;BME280;52365;47.464;18.976;2023-11-18T00:28:08;99694.00;;;5.57;64.48
65666;BME280;52365;47.464;18.976;2023-11-18T00:28:29;99691.19;;;5.48;64.11
65666;BME280;52365;47.464;18.976;2023-11-18T00:28:50;99699.62;;;5.46;63.98
65666;BME280;52365;47.464;18.976;2023-11-18T00:29:11;99702.22;;;5.34;64.11
65666;BME280;52365;47.464;18.976;2023-11-18T00:29:33;99700.16;;;5.25;64.37
65666;BME280;52365;47.464;18.976;2023-11-18T00:29:54;99691.88;;;5.19;64.46
65666;BME280;52365;47.464;18.976;2023-11-18T00:30:15;99695.87;;;5.11;64.74
65666;BME280;52365;47.464;18.976;2023-11-18T00:30:37;99703.91;;;5.11;64.91
65666;BME280;52365;47.464;18.976;2023-11-18T00:30:53;99694.47;;;5.07;64.99
65666;BME280;52365;47.464;18.976;2023-11-18T00:31:14;99695.72;;;5.02;64.98
65666;BME280;52365;47.464;18.976;2023-11-18T00:31:35;99688.22;;;4.97;65.19
65666;BME280;52365;47.464;18.976;2023-11-18T00:31:56;99695.72;;;5.02;65.43
65666;BME280;52365;47.464;18.976;2023-11-18T00:32:17;99722.09;;;5.16;65.29
65666;BME280;52365;47.464;18.976;2023-11-18T00:32:38;99685.84;;;4.99;65.35
65666;BME280;52365;47.464;18.976;2023-11-18T00:32:59;99700.88;;;4.93;65.39
65666;BME280;52365;47.464;18.976;2023-11-18T00:33:20;99702.88;;;4.89;65.43
65666;BME280;52365;47.464;18.976;2023-11-18T00:33:41;99705.47;;;4.92;65.33
65666;BME280;52365;47.464;18.976;2023-11-18T00:34:02;99706.56;;;4.95;65.39
65666;BME280;52365;47.464;18.976;2023-11-18T00:34:26;99677.94;;;4.95;65.33
65666;BME280;52365;47.464;18.976;2023-11-18T00:34:50;99690.84;;;4.80;65.61
65666;BME280;52365;47.464;18.976;2023-11-18T00:35:11;99695.28;;;4.87;65.48
65666;BME280;52365;47.464;18.976;2023-11-18T00:35:32;99702.06;;;4.92;65.42
65666;BME280;52365;47.464;18.976;2023-11-18T00:35:54;99709.75;;;5.06;65.32
65666;BME280;52365;47.464;18.976;2023-11-18T00:36:15;99695.63;;;4.89;65.15
65666;BME280;52365;47.464;18.976;2023-11-18T00:36:36;99703.56;;;4.93;65.25
65666;BME280;52365;47.464;18.976;2023-11-18T00:36:57;99702.06;;;4.92;65.36
65666;BME280;52365;47.464;18.976;2023-11-18T00:37:18;99708.72;;;5.00;65.28
65666;BME280;52365;47.464;18.976;2023-11-18T00:37:39;99704.72;;;5.08;65.04
65666;BME280;52365;47.464;18.976;2023-11-18T00:38:00;99709.41;;;5.20;64.84
65666;BME280;52365;47.464;18.976;2023-11-18T00:38:21;99713.94;;;5.23;64.65
65666;BME280;52365;47.464;18.976;2023-11-18T00:38:42;99715.28;;;5.32;64.52
65666;BME280;52365;47.464;18.976;2023-11-18T00:39:03;99700.53;;;5.40;64.39
65666;BME280;52365;47.464;18.976;2023-11-18T00:39:25;99715.09;;;5.39;64.01
65666;BME280;52365;47.464;18.976;2023-11-18T00:39:46;99710.91;;;5.21;64.18
65666;BME280;52365;47.464;18.976;2023-11-18T00:40:08;99707.69;;;5.14;64.55
65666;BME280;52365;47.464;18.976;2023-11-18T00:40:30;99703.16;;;5.11;64.69
65666;BME280;52365;47.464;18.976;2023-11-18T00:40:51;99710.56;;;5.03;64.87
65666;BME280;52365;47.464;18.976;2023-11-18T00:41:12;99705.25;;;5.19;64.85
65666;BME280;52365;47.464;18.976;2023-11-18T00:41:33;99707.50;;;5.21;64.51
65666;BME280;52365;47.464;18.976;2023-11-18T00:41:54;99710.00;;;5.28;64.34
65666;BME280;52365;47.464;18.976;2023-11-18T00:42:16;99715.19;;;5.19;64.57
65666;BME280;52365;47.464;18.976;2023-11-18T00:42:37;99713.84;;;5.27;64.48
65666;BME280;52365;47.464;18.976;2023-11-18T00:42:59;99708.31;;;5.18;64.63
65666;BME280;52365;47.464;18.976;2023-11-18T00:43:20;99705.06;;;5.26;64.51
65666;BME280;52365;47.464;18.976;2023-11-18T00:43:41;99706.31;;;5.22;64.74
65666;BME280;52365;47.464;18.976;2023-11-18T00:44:02;99703.72;;;5.02;65.24
65666;BME280;52365;47.464;18.976;2023-11-18T00:44:24;99706.41;;;5.02;65.34
65666;BME280;52365;47.464;18.976;2023-11-18T00:44:44;99706.81;;;5.00;65.37
65666;BME280;52365;47.464;18.976;2023-11-18T00:45:00;99694.97;;;5.18;65.34
65666;BME280;52365;47.464;18.976;2023-11-18T00:45:22;99698.97;;;5.26;65.03
65666;BME280;52365;47.464;18.976;2023-11-18T00:45:43;99701.38;;;5.04;65.27
65666;BME280;52365;47.464;18.976;2023-11-18T00:46:04;99712.00;;;5.08;65.16
65666;BME280;52365;47.464;18.976;2023-11-18T00:46:26;99713.50;;;4.92;65.37
65666;BME280;52365;47.464;18.976;2023-11-18T00:46:47;99715.75;;;5.10;65.29
65666;BME280;52365;47.464;18.976;2023-11-18T00:47:08;99707.00;;;5.10;65.21
65666;BME280;52365;47.464;18.976;2023-11-18T00:47:29;99701.31;;;5.08;65.11
65666;BME280;52365;47.464;18.976;2023-11-18T00:47:50;99708.41;;;5.14;65.17
65666;BME280;52365;47.464;18.976;2023-11-18T00:48:11;99709.66;;;5.26;64.89
65666;BME280;52365;47.464;18.976;2023-11-18T00:48:27;99708.00;;;5.16;65.04
65666;BME280;52365;47.464;18.976;2023-11-18T00:48:48;99706.31;;;5.22;64.97
65666;BME280;52365;47.464;18.976;2023-11-18T00:49:09;99711.09;;;5.14;64.94
65666;BME280;52365;47.464;18.976;2023-11-18T00:49:32;99708.81;;;5.13;65.04
65666;BME280;52365;47.464;18.976;2023-11-18T00:49:54;99703.81;;;4.98;65.16
65666;BME280;52365;47.464;18.976;2023-11-18T00:50:15;99706.38;;;4.86;65.38
65666;BME280;52365;47.464;18.976;2023-11-18T00:50:36;99699.13;;;5.02;65.44
65666;BME280;52365;47.464;18.976;2023-11-18T00:50:57;99698.47;;;5.15;65.12
65666;BME280;52365;47.464;18.976;2023-11-18T00:51:19;99707.09;;;5.22;64.77
65666;BME280;52365;47.464;18.976;2023-11-18T00:51:40;99701.75;;;5.06;64.67
65666;BME280;52365;47.464;18.976;2023-11-18T00:52:02;99717.41;;;5.04;64.73
65666;BME280;52365;47.464;18.976;2023-11-18T00:52:24;99700.47;;;4.94;65.05
65666;BME280;52365;47.464;18.976;2023-11-18T00:52:45;99699.88;;;5.03;64.99
65666;BME280;52365;47.464;18.976;2023-11-18T00:53:10;99714.56;;;4.95;65.21
65666;BME280;52365;47.464;18.976;2023-11-18T00:53:31;99712.91;;;5.01;65.27
65666;BME280;52365;47.464;18.976;2023-11-18T00:53:52;99703.41;;;5.16;65.13
65666;BME280;52365;47.464;18.976;2023-11-18T00:54:14;99709.41;;;5.20;64.83
65666;BME280;52365;47.464;18.976;2023-11-18T00:54:35;99706.50;;;5.15;64.79
65666;BME280;52365;47.464;18.976;2023-11-18T00:54:57;99707.91;;;5.03;65.04
65666;BME280;52365;47.464;18.976;2023-11-18T00:55:18;99704.00;;;5.24;64.70
65666;BME280;52365;47.464;18.976;2023-11-18T00:55:39;99710.41;;;5.26;64.39
65666;BME280;52365;47.464;18.976;2023-11-18T00:56:01;99714.69;;;5.24;64.38
65666;BME280;52365;47.464;18.976;2023-11-18T00:56:22;99713.50;;;5.25;64.31
65666;BME280;52365;47.464;18.976;2023-11-18T00:56:43;99715.28;;;5.32;64.36
65666;BME280;52365;47.464;18.976;2023-11-18T00:57:04;99709.50;;;5.49;64.02
65666;BME280;52365;47.464;18.976;2023-11-18T00:57:25;99724.94;;;5.42;63.74
65666;BME280;52365;47.464;18.976;2023-11-18T00:57:46;99724.34;;;5.34;63.89
65666;BME280;52365;47.464;18.976;2023-11-18T00:58:07;99711.09;;;5.14;64.29
65666;BME280;52365;47.464;18.976;2023-11-18T00:58:28;99713.25;;;5.19;64.35
65666;BME280;52365;47.464;18.976;2023-11-18T00:58:49;99709.66;;;5.26;64.35
65666;BME280;52365;47.464;18.976;2023-11-18T00:59:10;99714.75;;;5.20;64.21
65666;BME280;52365;47.464;18.976;2023-11-18T00:59:31;99712.00;;;5.08;64.49
65666;BME280;52365;47.464;18.976;2023-11-18T00:59:52;99705.66;;;5.18;64.44
65666;BME280;52365;47.464;18.976;2023-11-18T01:00:15;99715.59;;;5.17;64.38
65666;BME280;52365;47.464;18.976;2023-11-18T01:00:42;99718.25;;;5.17;64.34
65666;BME280;52365;47.464;18.976;2023-11-18T01:01:03;99715.19;;;5.19;64.30
65666;BME280;52365;47.464;18.976;2023-11-18T01:01:24;99711.25;;;5.07;64.46
65666;BME280;52365;47.464;18.976;2023-11-18T01:01:45;99722.25;;;5.09;64.57
65666;BME280;52365;47.464;18.976;2023-11-18T01:02:06;99727.78;;;5.02;64.63
65666;BME280;52365;47.464;18.976;2023-11-18T01:02:29;99720.50;;;5.02;64.79
65666;BME280;52365;47.464;18.976;2023-11-18T01:02:49;99719.41;;;5.00;64.96
65666;BME280;52365;47.464;18.976;2023-11-18T01:03:10;99725.41;;;5.04;65.10
65666;BME280;52365;47.464;18.976;2023-11-18T01:03:32;99721.34;;;5.16;64.89
65666;BME280;52365;47.464;18.976;2023-11-18T01:03:54;99719.25;;;5.07;64.83
65666;BME280;52365;47.464;18.976;2023-11-18T01:04:19;99720.00;;;5.08;64.81
65666;BME280;52365;47.464;18.976;2023-11-18T01:04:40;99718.59;;;5.19;64.72
65666;BME280;52365;47.464;18.976;2023-11-18T01:05:01;99713.00;;;5.14;64.56
65666;BME280;52365;47.464;18.976;2023-11-18T01:05:24;99720.25;;;4.97;64.85
65666;BME280;52365;47.464;18.976;2023-11-18T01:05:45;99736.03;;;5.08;64.90
65666;BME280;52365;47.464;18.976;2023-11-18T01:06:06;99725.91;;;4.99;64.81
65666;BME280;52365;47.464;18.976;2023-11-18T01:06:27;99726.50;;;4.90;65.04
65666;BME280;52365;47.464;18.976;2023-11-18T01:06:48;99718.25;;;5.01;65.09
65666;BME280;52365;47.464;18.976;2023-11-18T01:07:10;99723.69;;;5.14;64.92
65666;BME280;52365;47.464;18.976;2023-11-18T01:07:31;99723.12;;;5.22;64.69
65666;BME280;52365;47.464;18.976;2023-11-18T01:07:52;99733.69;;;5.26;64.44
65666;BME280;52365;47.464;18.976;2023-11-18T01:08:13;99721.50;;;4.92;64.70
65666;BME280;52365;47.464;18.976;2023-11-18T01:08:34;99721.50;;;4.92;65.00
65666;BME280;52365;47.464;18.976;2023-11-18T01:08:55;99728.28;;;4.97;64.97
65666;BME280;52365;47.464;18.976;2023-11-18T01:09:16;99722.44;;;5.02;64.96
65666;BME280;52365;47.464;18.976;2023-11-18T01:09:38;99724.59;;;5.07;64.84
65666;BME280;52365;47.464;18.976;2023-11-18T01:09:59;99730.25;;;4.93;64.98
65666;BME280;52365;47.464;18.976;2023-11-18T01:10:21;99737.25;;;4.87;65.38
65666;BME280;52365;47.464;18.976;2023-11-18T01:10:42;99729.22;;;4.87;65.32
65666;BME280;52365;47.464;18.976;2023-11-18T01:11:03;99736.19;;;4.84;65.43
65666;BME280;52365;47.464;18.976;2023-11-18T01:11:25;99729.59;;;4.89;65.31
65666;BME280;52365;47.464;18.976;2023-11-18T01:11:46;99734.56;;;4.87;65.41
65666;BME280;52365;47.464;18.976;2023-11-18T01:12:07;99734.84;;;4.92;65.42
65666;BME280;52365;47.464;18.976;2023-11-18T01:12:30;99743.63;;;4.93;65.33
65666;BME280;52365;47.464;18.976;2023-11-18T01:12:51;99740.63;;;5.07;65.25
65666;BME280;52365;47.464;18.976;2023-11-18T01:13:12;99741.13;;;5.02;65.26
65666;BME280;52365;47.464;18.976;2023-11-18T01:13:33;99742.13;;;5.08;65.15
65666;BME280;52365;47.464;18.976;2023-11-18T01:13:54;99749.31;;;5.11;65.10
65666;BME280;52365;47.464;18.976;2023-11-18T01:14:16;99733.47;;;5.20;64.79
65666;BME280;52365;47.464;18.976;2023-11-18T01:14:39;99733.81;;;5.22;64.64
65666;BME280;52365;47.464;18.976;2023-11-18T01:15:00;99735.47;;;5.33;64.41
65666;BME280;52365;47.464;18.976;2023-11-18T01:15:21;99743.78;;;5.02;64.96
65666;BME280;52365;47.464;18.976;2023-11-18T01:15:43;99743.78;;;5.02;65.03
65666;BME280;52365;47.464;18.976;2023-11-18T01:16:05;99749.31;;;5.11;65.05
65666;BME280;52365;47.464;18.976;2023-11-18T01:16:26;99746.97;;;5.13;64.69
65666;BME280;52365;47.464;18.976;2023-11-18T01:16:49;99744.13;;;5.04;64.69
65666;BME280;52365;47.464;18.976;2023-11-18T01:17:10;99745.28;;;5.03;64.78
65666;BME280;52365;47.464;18.976;2023-11-18T01:17:31;99743.41;;;5.20;64.59
65666;BME280;52365;47.464;18.976;2023-11-18T01:17:52;99743.31;;;5.23;64.31
65666;BME280;52365;47.464;18.976;2023-11-18T01:18:13;99741.53;;;5.17;64.31
65666;BME280;52365;47.464;18.976;2023-11-18T01:18:34;99748.47;;;4.98;64.48
65666;BME280;52365;47.464;18.976;2023-11-18T01:18:55;99756.13;;;4.96;64.71
65666;BME280;52365;47.464;18.976;2023-11-18T01:19:16;99760.16;;;5.04;64.75
65666;BME280;52365;47.464;18.976;2023-11-18T01:19:39;99746.03;;;5.03;64.69
65666;BME280;52365;47.464;18.976;2023-11-18T01:20:00;99753.16;;;5.10;64.60
65666;BME280;52365;47.464;18.976;2023-11-18T01:20:26;99747.38;;;5.12;64.57
65666;BME280;52365;47.464;18.976;2023-11-18T01:20:47;99748.25;;;5.25;64.46
65666;BME280;52365;47.464;18.976;2023-11-18T01:21:08;99739.63;;;5.34;64.21
65666;BME280;52365;47.464;18.976;2023-11-18T01:21:29;99756.34;;;5.38;63.95
65666;BME280;52365;47.464;18.976;2023-11-18T01:21:50;99755.34;;;5.32;63.90
65666;BME280;52365;47.464;18.976;2023-11-18T01:22:14;99747.34;;;5.32;64.07
65666;BME280;52365;47.464;18.976;2023-11-18T01:22:35;99753.34;;;5.19;64.05
65666;BME280;52365;47.464;18.976;2023-11-18T01:22:56;99746.31;;;5.25;64.13
65666;BME280;52365;47.464;18.976;2023-11-18T01:23:17;99756.91;;;5.13;64.25
65666;BME280;52365;47.464;18.976;2023-11-18T01:23:39;99750.94;;;4.89;64.56
65666;BME280;52365;47.464;18.976;2023-11-18T01:24:03;99760.75;;;4.75;65.01
65666;BME280;52365;47.464;18.976;2023-11-18T01:24:24;99758.28;;;4.85;65.20
65666;BME280;52365;47.464;18.976;2023-11-18T01:24:45;99761.38;;;4.99;64.98
65666;BME280;52365;47.464;18.976;2023-11-18T01:25:07;99756.97;;;5.09;64.73
65666;BME280;52365;47.464;18.976;2023-11-18T01:25:29;99753.84;;;5.14;64.49
65666;BME280;52365;47.464;18.976;2023-11-18T01:25:50;99753.94;;;5.27;64.42
65666;BME280;52365;47.464;18.976;2023-11-18T01:26:12;99763.09;;;5.26;64.17
65666;BME280;52365;47.464;18.976;2023-11-18T01:26:33;99751.56;;;4.96;64.68
65666;BME280;52365;47.464;18.976;2023-11-18T01:26:54;99755.22;;;5.02;64.81
65666;BME280;52365;47.464;18.976;2023-11-18T01:27:15;99753.31;;;5.03;64.82
65666;BME280;52365;47.464;18.976;2023-11-18T01:27:36;99750.22;;;5.04;64.86
65666;BME280;52365;47.464;18.976;2023-11-18T01:27:57;99759.94;;;5.15;64.74
65666;BME280;52365;47.464;18.976;2023-11-18T01:28:18;99757.50;;;5.20;64.76
65666;BME280;52365;47.464;18.976;2023-11-18T01:28:39;99760.69;;;5.15;64.49
65666;BME280;52365;47.464;18.976;2023-11-18T01:29:03;99764.34;;;5.05;64.60
65666;BME280;52365;47.464;18.976;2023-11-18T01:29:25;99769.12;;;5.14;64.60
65666;BME280;52365;47.464;18.976;2023-11-18T01:29:46;99764.34;;;5.05;64.54
65666;BME280;52365;47.464;18.976;2023-11-18T01:30:10;99758.66;;;5.03;64.61
65666;BME280;52365;47.464;18.976;2023-11-18T01:30:32;99769.75;;;5.01;64.70
65666;BME280;52365;47.464;18.976;2023-11-18T01:30:53;99769.19;;;5.10;64.70
65666;BME280;52365;47.464;18.976;2023-11-18T01:31:14;99766.16;;;5.08;64.76
65666;BME280;52365;47.464;18.976;2023-11-18T01:31:35;99774.03;;;5.15;64.64
65666;BME280;52365;47.464;18.976;2023-11-18T01:31:56;99759.00;;;5.21;64.54
65666;BME280;52365;47.464;18.976;2023-11-18T01:32:17;99751.75;;;5.38;64.37
65666;BME280;52365;47.464;18.976;2023-11-18T01:32:39;99756.19;;;5.28;63.93
65666;BME280;52365;47.464;18.976;2023-11-18T01:33:00;99766.13;;;5.28;64.00
65666;BME280;52365;47.464;18.976;2023-11-18T01:33:21;99774.28;;;5.21;64.10
65666;BME280;52365;47.464;18.976;2023-11-18T01:33:44;99765.66;;;5.13;64.27
65666;BME280;52365;47.464;18.976;2023-11-18T01:34:07;99769.28;;;5.23;64.27
65666;BME280;52365;47.464;18.976;2023-11-18T01:34:28;99765.28;;;5.15;64.28
65666;BME280;52365;47.464;18.976;2023-11-18T01:34:49;99760.59;;;5.19;64.22
65666;BME280;52365;47.464;18.976;2023-11-18T01:35:11;99768.44;;;5.10;64.31
65666;BME280;52365;47.464;18.976;2023-11-18T01:35:28;99758.06;;;5.12;64.26
65666;BME280;52365;47.464;18.976;2023-11-18T01:35:49;99756.78;;;5.00;64.36
65666;BME280;52365;47.464;18.976;2023-11-18T01:36:10;99756.22;;;5.09;64.53
65666;BME280;52365;47.464;18.976;2023-11-18T01:36:31;99761.44;;;5.16;64.35
65666;BME280;52365;47.464;18.976;2023-11-18T01:36:52;99758.59;;;5.23;64.34
65666;BME280;52365;47.464;18.976;2023-11-18T01:37:13;99755.81;;;5.26;64.18
65666;BME280;52365;47.464;18.976;2023-11-18T01:37:35;99753.00;;;5.34;64.00
65666;BME280;52365;47.464;18.976;2023-11-18T01:37:57;99750.66;;;5.19;64.13
65666;BME280;52365;47.464;18.976;2023-11-18T01:38:18;99763.09;;;5.10;64.26
65666;BME280;52365;47.464;18.976;2023-11-18T01:38:41;99756.22;;;5.09;64.44
65666;BME280;52365;47.464;18.976;2023-11-18T01:39:02;99760.53;;;5.22;64.27
65666;BME280;52365;47.464;18.976;2023-11-18T01:39:23;99745.72;;;5.01;64.41
65666;BME280;52365;47.464;18.976;2023-11-18T01:39:46;99762.13;;;4.84;64.72
65666;BME280;52365;47.464;18.976;2023-11-18T01:40:07;99769.16;;;4.74;65.13
65666;BME280;52365;47.464;18.976;2023-11-18T01:40:28;99761.62;;;4.89;65.21
65666;BME280;52365;47.464;18.976;2023-11-18T01:40:52;99759.88;;;4.98;65.08
65666;BME280;52365;47.464;18.976;2023-11-18T01:41:14;99761.84;;;5.14;64.82
65666;BME280;52365;47.464;18.976;2023-11-18T01:41:30;99758.16;;;5.08;64.46
65666;BME280;52365;47.464;18.976;2023-11-18T01:41:53;99761.56;;;5.09;64.57
65666;BME280;52365;47.464;18.976;2023-11-18T01:42:14;99759.84;;;5.18;64.38
65666;BME280;52365;47.464;18.976;2023-11-18T01:42:35;99757.00;;;5.25;64.17
65666;BME280;52365;47.464;18.976;2023-11-18T01:42:57;99767.34;;;5.07;64.15
65666;BME280;52365;47.464;18.976;2023-11-18T01:43:19;99770.25;;;4.96;64.49
65666;BME280;52365;47.464;18.976;2023-11-18T01:43:40;99774.47;;;5.14;64.52
65666;BME280;52365;47.464;18.976;2023-11-18T01:44:01;99762.84;;;5.20;64.30
65666;BME280;52365;47.464;18.976;2023-11-18T01:44:22;99770.69;;;5.11;64.21
65666;BME280;52365;47.464;18.976;2023-11-18T01:44:44;99764.75;;;5.03;64.54
65666;BME280;52365;47.464;18.976;2023-11-18T01:45:06;99762.59;;;5.15;64.46
65666;BME280;52365;47.464;18.976;2023-11-18T01:45:32;99765.09;;;5.05;64.55
65666;BME280;52365;47.464;18.976;2023-11-18T01:45:54;99764.09;;;5.16;64.45
65666;BME280;52365;47.464;18.976;2023-11-18T01:46:16;99765.16;;;5.02;64.55
65666;BME280;52365;47.464;18.976;2023-11-18T01:46:38;99759.75;;;5.05;64.49
65666;BME280;52365;47.464;18.976;2023-11-18T01:47:01;99777.03;;;5.17;64.32
65666;BME280;52365;47.464;18.976;2023-11-18T01:47:23;99760.28;;;5.33;63.94
65666;BME280;52365;47.464;18.976;2023-11-18T01:47:45;99767.88;;;5.18;63.94
65666;BME280;52365;47.464;18.976;2023-11-18T01:48:09;99776.16;;;5.04;64.12
65666;BME280;52365;47.464;18.976;2023-11-18T01:48:34;99766.28;;;4.85;64.58
65666;BME280;52365;47.464;18.976;2023-11-18T01:48:56;99757.47;;;5.04;64.59
65666;BME280;52365;47.464;18.976;2023-11-18T01:49:17;99761.75;;;5.18;64.30
65666;BME280;52365;47.464;18.976;2023-11-18T01:49:39;99759.06;;;5.18;64.13
65666;BME280;52365;47.464;18.976;2023-11-18T01:50:01;99765.37;;;5.27;63.89
65666;BME280;52365;47.464;18.976;2023-11-18T01:50:23;99765.44;;;5.24;63.61
65666;BME280;52365;47.464;18.976;2023-11-18T01:50:44;99767.34;;;5.07;63.90
65666;BME280;52365;47.464;18.976;2023-11-18T01:51:07;99765.34;;;5.11;64.08
65666;BME280;52365;47.464;18.976;2023-11-18T01:51:30;99762.13;;;5.00;64.38
65666;BME280;52365;47.464;18.976;2023-11-18T01:51:52;99761.28;;;5.23;64.15
65666;BME280;52365;47.464;18.976;2023-11-18T01:52:13;99765.75;;;5.26;63.84
65666;BME280;52365;47.464;18.976;2023-11-18T01:52:35;99751.81;;;5.35;63.60
65666;BME280;52365;47.464;18.976;2023-11-18T01:52:56;99758.59;;;5.39;63.38
65666;BME280;52365;47.464;18.976;2023-11-18T01:53:17;99761.84;;;5.47;63.13
65666;BME280;52365;47.464;18.976;2023-11-18T01:53:40;99767.38;;;5.23;63.50